Time;durP1;ratioP1;P1;durP2;ratioP2;P2;SDS_P1;SDS_P2;PMS_P1;PMS_P2;Temp;Humidity;BMP_temperature;BMP_pressure;BME280_temperature;BME280_humidity;BME280_pressure;Samples;Min_cycle;Max_cycle;Signal;HPM_P1;HPM_P2
2021/09/04 00:02:11;;;;;;;15.32;9.65;;;;;;;12.29;100.00;96765.09;5058945;28;20413;-66
2021/09/04 00:04:38;;;;;;;14.82;8.88;;;;;;;12.34;100.00;96753.75;5061626;28;20244;-67
2021/09/04 00:07:05;;;;;;;10.95;7.50;;;;;;;12.52;100.00;96753.94;5059462;28;20039;-65
2021/09/04 00:09:30;;;;;;;13.05;8.73;;;;;;;12.71;100.00;96746.66;5060580;28;20044;-67
2021/09/04 00:11:55;;;;;;;12.93;8.60;;;;;;;12.86;100.00;96748.34;5062639;28;20131;-68
2021/09/04 00:14:21;;;;;;;12.25;8.23;;;;;;;13.00;100.00;96748.47;5057626;28;20040;-65
2021/09/04 00:16:46;;;;;;;12.65;8.30;;;;;;;12.91;100.00;96749.94;5062320;28;20047;-67
2021/09/04 00:19:11;;;;;;;12.38;7.43;;;;;;;12.82;100.00;96755.78;5057596;28;20029;-67
2021/09/04 00:21:37;;;;;;;13.43;7.55;;;;;;;12.74;100.00;96748.66;5060098;28;20078;-67
2021/09/04 00:24:03;;;;;;;13.02;7.43;;;;;;;12.78;100.00;96747.53;5060665;28;20378;-63
2021/09/04 00:26:29;;;;;;;9.93;6.57;;;;;;;12.80;100.00;96744.38;5044084;28;20044;-67
2021/09/04 00:28:54;;;;;;;11.00;6.80;;;;;;;12.79;100.00;96737.31;5046084;28;20799;-68
2021/09/04 00:31:20;;;;;;;11.60;6.72;;;;;;;12.76;100.00;96738.84;5055712;28;20040;-67
2021/09/04 00:33:45;;;;;;;11.20;7.10;;;;;;;12.71;100.00;96739.22;5061222;28;20446;-68
2021/09/04 00:36:11;;;;;;;13.20;7.65;;;;;;;12.64;100.00;96736.41;5057324;28;20753;-68
2021/09/04 00:38:36;;;;;;;12.38;8.05;;;;;;;12.52;100.00;96736.69;5061094;28;20772;-68
2021/09/04 00:41:02;;;;;;;10.90;7.57;;;;;;;12.41;100.00;96733.84;5067901;28;20051;-64
2021/09/04 00:43:27;;;;;;;10.07;7.28;;;;;;;12.38;100.00;96740.06;5064867;28;20048;-68
2021/09/04 00:45:52;;;;;;;12.02;7.68;;;;;;;12.21;100.00;96736.00;5047602;28;20044;-68
2021/09/04 00:48:18;;;;;;;12.98;7.00;;;;;;;12.14;100.00;96741.41;5056669;28;20040;-66
2021/09/04 00:50:43;;;;;;;11.63;6.78;;;;;;;12.30;100.00;96741.97;5061630;28;20055;-67
2021/09/04 00:53:09;;;;;;;11.57;7.68;;;;;;;12.33;100.00;96741.19;5055843;28;20511;-66
2021/09/04 00:55:34;;;;;;;10.43;6.97;;;;;;;12.37;100.00;96741.22;5067476;28;20055;-65
2021/09/04 00:58:00;;;;;;;13.23;6.90;;;;;;;12.45;100.00;96739.34;5065474;28;20074;-66
2021/09/04 01:00:27;;;;;;;10.15;7.05;;;;;;;12.54;100.00;96734.34;5080625;27;20032;-68
2021/09/04 01:02:52;;;;;;;11.20;6.68;;;;;;;12.45;100.00;96726.41;5067069;28;20767;-67
2021/09/04 01:05:18;;;;;;;11.20;6.60;;;;;;;12.24;100.00;96735.22;5057116;28;20044;-66
2021/09/04 01:07:44;;;;;;;11.48;6.88;;;;;;;12.23;100.00;96731.69;5065180;28;20138;-66
2021/09/04 01:10:11;;;;;;;12.63;7.13;;;;;;;12.14;100.00;96733.16;5036556;28;20053;-66
2021/09/04 01:12:37;;;;;;;11.45;6.68;;;;;;;12.08;100.00;96726.41;5044272;28;20052;-67
2021/09/04 01:15:06;;;;;;;9.68;6.20;;;;;;;12.02;100.00;96728.72;5073920;28;20428;-64
2021/09/04 01:17:32;;;;;;;14.75;7.45;;;;;;;12.13;100.00;96728.81;5071774;28;20043;-66
2021/09/04 01:19:58;;;;;;;12.60;6.97;;;;;;;12.17;100.00;96726.91;5073892;28;20408;-67
2021/09/04 01:22:23;;;;;;;12.30;7.55;;;;;;;12.15;100.00;96729.25;5076158;28;20040;-66
2021/09/04 01:24:51;;;;;;;11.43;7.20;;;;;;;12.13;100.00;96732.34;5067486;28;20049;-67
2021/09/04 01:27:18;;;;;;;11.23;7.80;;;;;;;12.08;100.00;96723.66;5057540;28;20082;-66
2021/09/04 01:29:44;;;;;;;14.40;7.32;;;;;;;12.03;100.00;96724.81;5060993;28;20482;-65
2021/09/04 01:32:09;;;;;;;11.45;7.40;;;;;;;11.81;100.00;96727.28;5053387;28;20059;-63
2021/09/04 01:34:34;;;;;;;12.63;8.07;;;;;;;11.69;100.00;96724.00;5061170;28;20036;-67
2021/09/04 01:37:00;;;;;;;11.32;6.85;;;;;;;11.63;100.00;96720.75;5062069;28;20692;-65
2021/09/04 01:39:26;;;;;;;10.35;7.00;;;;;;;11.75;100.00;96723.28;5055263;28;20047;-64
2021/09/04 01:41:51;;;;;;;13.02;8.32;;;;;;;11.74;100.00;96720.91;5061274;28;20135;-67
2021/09/04 01:44:17;;;;;;;11.48;7.07;;;;;;;11.82;100.00;96725.31;5056360;28;20043;-67
2021/09/04 01:46:42;;;;;;;10.95;7.45;;;;;;;11.63;100.00;96721.56;5060807;28;20040;-66
2021/09/04 01:49:08;;;;;;;10.65;7.00;;;;;;;11.61;100.00;96721.16;5055731;28;20029;-67
2021/09/04 01:51:33;;;;;;;10.35;6.65;;;;;;;11.68;100.00;96725.94;5046574;28;20045;-65
2021/09/04 01:53:59;;;;;;;9.32;6.60;;;;;;;11.74;100.00;96720.91;5056885;28;20051;-65
2021/09/04 01:56:25;;;;;;;14.20;7.13;;;;;;;11.73;100.00;96728.34;5050709;28;20049;-65
2021/09/04 01:58:50;;;;;;;11.85;7.30;;;;;;;11.71;100.00;96722.44;5056682;28;20049;-66
2021/09/04 02:01:16;;;;;;;12.27;7.40;;;;;;;11.71;100.00;96725.19;5037969;28;20037;-65
2021/09/04 02:03:41;;;;;;;11.45;7.85;;;;;;;11.67;100.00;96729.84;5060421;28;20036;-67
2021/09/04 02:06:07;;;;;;;12.13;7.60;;;;;;;11.69;100.00;96715.75;5054071;28;20044;-64
2021/09/04 02:08:32;;;;;;;11.75;7.22;;;;;;;11.74;100.00;96726.38;5042265;28;20101;-66
2021/09/04 02:10:58;;;;;;;10.93;7.32;;;;;;;11.70;100.00;96725.56;5049517;28;20516;-67
2021/09/04 02:13:24;;;;;;;11.45;7.30;;;;;;;11.73;100.00;96730.31;5052124;28;20575;-65
2021/09/04 02:15:51;;;;;;;9.85;6.47;;;;;;;11.75;100.00;96722.50;5060659;28;20041;-66
2021/09/04 02:18:16;;;;;;;14.07;8.02;;;;;;;11.81;100.00;96719.06;5045275;28;20131;-66
2021/09/04 02:20:42;;;;;;;12.90;8.30;;;;;;;11.76;100.00;96718.59;5060984;28;20136;-67
2021/09/04 02:23:08;;;;;;;11.57;7.57;;;;;;;11.79;100.00;96717.81;5050453;28;20544;-66
2021/09/04 02:25:33;;;;;;;11.25;6.88;;;;;;;11.85;100.00;96710.84;5052725;28;20135;-66
2021/09/04 02:27:58;;;;;;;12.20;7.10;;;;;;;11.89;100.00;96719.13;5052305;28;20467;-64
2021/09/04 02:30:24;;;;;;;11.38;7.32;;;;;;;11.86;100.00;96715.16;5049763;28;20973;-64
2021/09/04 02:32:49;;;;;;;9.60;6.68;;;;;;;11.82;100.00;96712.38;5056589;28;20123;-64
2021/09/04 02:35:15;;;;;;;11.00;6.72;;;;;;;11.77;100.00;96715.44;5054974;28;20120;-65
2021/09/04 02:37:40;;;;;;;10.10;6.50;;;;;;;11.71;100.00;96711.47;5050671;28;20131;-65
2021/09/04 02:40:07;;;;;;;10.25;6.65;;;;;;;11.69;100.00;96707.53;5031337;28;20052;-65
2021/09/04 02:42:33;;;;;;;9.27;6.65;;;;;;;11.60;100.00;96708.59;5038729;28;20041;-63
2021/09/04 02:44:58;;;;;;;10.23;6.15;;;;;;;11.38;100.00;96704.81;5031665;28;20047;-65
2021/09/04 02:47:23;;;;;;;10.90;7.03;;;;;;;11.27;100.00;96709.31;5055020;28;20493;-65
2021/09/04 02:49:49;;;;;;;10.00;6.63;;;;;;;11.24;100.00;96710.09;5059869;28;20079;-65
2021/09/04 02:52:15;;;;;;;11.25;6.90;;;;;;;11.29;100.00;96705.06;5036061;28;20151;-66
2021/09/04 02:54:41;;;;;;;12.07;6.88;;;;;;;11.37;100.00;96702.44;5055985;28;20493;-65
2021/09/04 02:57:07;;;;;;;10.80;7.05;;;;;;;11.46;100.00;96700.19;5055471;28;20037;-65
2021/09/04 02:59:33;;;;;;;10.77;6.75;;;;;;;11.46;100.00;96705.66;5048388;28;20067;-66
2021/09/04 03:01:58;;;;;;;10.68;6.80;;;;;;;11.40;100.00;96701.69;5054064;28;20044;-65
2021/09/04 03:04:23;;;;;;;10.75;6.38;;;;;;;11.36;100.00;96698.91;5030092;28;20686;-66
2021/09/04 03:06:49;;;;;;;13.55;6.55;;;;;;;11.34;100.00;96697.69;5036810;28;20076;-67
2021/09/04 03:09:14;;;;;;;11.05;7.07;;;;;;;11.32;100.00;96694.53;5051262;28;20040;-66
2021/09/04 03:11:40;;;;;;;10.85;7.03;;;;;;;11.22;100.00;96693.22;5044973;28;20124;-65
2021/09/04 03:14:05;;;;;;;9.52;6.47;;;;;;;11.23;100.00;96697.53;5041952;28;20635;-64
2021/09/04 03:16:31;;;;;;;10.70;6.53;;;;;;;11.20;100.00;96704.56;5048651;28;20078;-65
2021/09/04 03:18:56;;;;;;;11.10;6.40;;;;;;;11.23;100.00;96700.28;5035269;28;20041;-67
2021/09/04 03:21:22;;;;;;;12.52;6.55;;;;;;;11.09;100.00;96707.16;5039947;28;20283;-67
2021/09/04 03:23:47;;;;;;;10.52;6.60;;;;;;;10.99;100.00;96694.06;5051431;28;20498;-64
2021/09/04 03:26:12;;;;;;;9.55;6.63;;;;;;;10.96;100.00;96696.75;5031047;28;20182;-65
2021/09/04 03:28:38;;;;;;;11.57;7.10;;;;;;;11.00;100.00;96695.66;5045860;28;20555;-67
2021/09/04 03:31:04;;;;;;;14.93;7.22;;;;;;;11.04;100.00;96695.72;5042163;28;20040;-64
2021/09/04 03:33:29;;;;;;;11.55;6.65;;;;;;;11.09;100.00;96695.38;5030241;28;20785;-67
2021/09/04 03:35:55;;;;;;;9.90;6.60;;;;;;;11.14;100.00;96692.31;5041014;28;20075;-67
2021/09/04 03:38:20;;;;;;;8.93;6.18;;;;;;;11.18;100.00;96692.38;5042657;28;20436;-68
2021/09/04 03:40:46;;;;;;;12.88;6.90;;;;;;;11.21;100.00;96695.16;5051061;28;20072;-67
2021/09/04 03:43:12;;;;;;;11.52;6.78;;;;;;;11.21;100.00;96692.41;5050056;28;20398;-66
2021/09/04 03:45:37;;;;;;;10.05;7.32;;;;;;;11.07;100.00;96697.69;5046092;28;20056;-66
2021/09/04 03:48:03;;;;;;;9.60;6.03;;;;;;;10.85;100.00;96693.84;5032370;28;20037;-65
2021/09/04 03:50:29;;;;;;;14.10;7.60;;;;;;;10.63;100.00;96699.00;5061261;28;20052;-66
2021/09/04 03:52:55;;;;;;;13.90;8.57;;;;;;;10.37;100.00;96707.16;5059014;28;20055;-68
2021/09/04 03:55:20;;;;;;;13.63;9.30;;;;;;;10.18;100.00;96706.03;5044648;28;20050;-67
2021/09/04 03:57:46;;;;;;;14.48;9.02;;;;;;;9.95;100.00;96711.47;5049119;28;20076;-67
2021/09/04 04:00:12;;;;;;;14.35;9.88;;;;;;;9.76;100.00;96710.34;5033662;28;20047;-66
2021/09/04 04:02:37;;;;;;;13.43;8.95;;;;;;;9.72;100.00;96712.22;5038689;28;20087;-68
2021/09/04 04:05:03;;;;;;;23.92;13.52;;;;;;;9.69;100.00;96707.47;5061959;28;20047;-64
2021/09/04 04:07:29;;;;;;;16.63;10.60;;;;;;;9.67;100.00;96708.97;5039459;28;20572;-66
2021/09/04 04:09:55;;;;;;;16.25;11.10;;;;;;;9.68;100.00;96708.59;5051744;28;20056;-66
2021/09/04 04:12:21;;;;;;;15.65;10.13;;;;;;;9.69;100.00;96702.00;5025689;28;20048;-67
2021/09/04 04:14:46;;;;;;;16.58;10.60;;;;;;;9.73;100.00;96708.31;5057228;28;20128;-67
2021/09/04 04:17:12;;;;;;;18.75;11.65;;;;;;;9.72;100.00;96701.28;5056365;28;20044;-67
2021/09/04 04:19:37;;;;;;;15.55;9.73;;;;;;;9.87;100.00;96707.03;5063291;28;20119;-66
2021/09/04 04:22:03;;;;;;;14.68;9.45;;;;;;;10.05;100.00;96713.63;5056543;28;20041;-65
2021/09/04 04:24:28;;;;;;;16.05;9.18;;;;;;;10.16;100.00;96705.63;5059636;28;20497;-65
2021/09/04 04:26:54;;;;;;;15.90;9.07;;;;;;;10.16;100.00;96708.34;5054310;28;20083;-66
2021/09/04 04:29:19;;;;;;;12.95;8.18;;;;;;;10.24;100.00;96709.25;5047994;28;20045;-66
2021/09/04 04:31:45;;;;;;;15.00;9.70;;;;;;;10.21;100.00;96704.50;5063491;28;20086;-66
2021/09/04 04:34:10;;;;;;;14.98;8.27;;;;;;;10.22;100.00;96698.66;5057519;28;20063;-65
2021/09/04 04:36:36;;;;;;;12.60;8.38;;;;;;;10.18;100.00;96703.31;5054749;28;20041;-66
2021/09/04 04:39:02;;;;;;;15.38;7.80;;;;;;;10.10;100.00;96707.03;5048472;28;20486;-66
2021/09/04 04:41:27;;;;;;;12.68;8.00;;;;;;;10.16;100.00;96704.84;5047003;28;20036;-66
2021/09/04 04:43:52;;;;;;;14.60;8.07;;;;;;;10.30;100.00;96707.81;5046538;28;20037;-65
2021/09/04 04:46:18;;;;;;;12.48;7.80;;;;;;;10.33;100.00;96709.84;5030435;28;20128;-66
2021/09/04 04:48:43;;;;;;;12.50;8.48;;;;;;;10.40;100.00;96712.69;5054257;28;20037;-65
2021/09/04 04:51:09;;;;;;;11.95;8.30;;;;;;;10.47;100.00;96712.03;5041714;28;20049;-69
2021/09/04 04:53:34;;;;;;;15.60;7.97;;;;;;;10.40;100.00;96715.44;5049905;28;20040;-66
2021/09/04 04:56:02;;;;;;;12.98;7.95;;;;;;;10.52;100.00;96725.44;5042458;28;20036;-66
2021/09/04 04:58:28;;;;;;;18.88;9.05;;;;;;;10.67;100.00;96718.22;5041357;28;20041;-65
2021/09/04 05:00:53;;;;;;;15.52;9.43;;;;;;;10.65;100.00;96721.34;5056041;28;20041;-65
2021/09/04 05:03:19;;;;;;;14.13;8.90;;;;;;;10.73;100.00;96718.72;5039362;28;20547;-65
2021/09/04 05:05:44;;;;;;;14.13;8.52;;;;;;;10.63;100.00;96720.91;5059509;28;20485;-65
2021/09/04 05:08:10;;;;;;;13.07;8.77;;;;;;;10.74;100.00;96720.31;5030282;28;20128;-64
2021/09/04 05:10:36;;;;;;;14.07;8.32;;;;;;;10.89;100.00;96722.91;5042969;28;20445;-65
2021/09/04 05:13:01;;;;;;;15.18;8.18;;;;;;;11.15;100.00;96717.78;5042812;28;20371;-64
2021/09/04 05:15:26;;;;;;;12.75;8.13;;;;;;;11.31;100.00;96715.66;5043318;28;20033;-65
2021/09/04 05:17:52;;;;;;;13.45;8.32;;;;;;;11.63;100.00;96713.34;5040027;28;20049;-65
2021/09/04 05:20:17;;;;;;;13.38;8.75;;;;;;;12.26;100.00;96708.16;5046685;28;20037;-65
2021/09/04 05:22:45;;;;;;;15.25;7.95;;;;;;;13.21;94.06;96708.53;5037663;28;20044;-66
2021/09/04 05:25:10;;;;;;;12.00;7.50;;;;;;;14.23;86.47;96708.59;5045265;28;20041;-65
2021/09/04 05:27:37;;;;;;;10.75;7.18;;;;;;;15.08;81.44;96707.06;5032418;28;20453;-64
2021/09/04 05:30:02;;;;;;;11.77;6.97;;;;;;;15.26;78.73;96709.03;5062336;28;20048;-64
2021/09/04 05:32:28;;;;;;;10.43;6.00;;;;;;;15.82;78.50;96703.75;5053026;28;20041;-66
2021/09/04 05:34:53;;;;;;;15.23;10.07;;;;;;;16.79;73.63;96705.91;5042183;28;20127;-66
2021/09/04 05:37:18;;;;;;;12.20;6.43;;;;;;;17.59;69.82;96701.22;5030848;28;20041;-65
2021/09/04 05:39:45;;;;;;;12.43;8.07;;;;;;;18.44;65.80;96709.66;5055123;28;20041;-66
2021/09/04 05:42:10;;;;;;;12.35;8.25;;;;;;;19.31;62.96;96703.53;5056255;28;20043;-68
2021/09/04 05:44:36;;;;;;;12.95;7.63;;;;;;;19.88;62.69;96706.44;5060759;28;20040;-66
2021/09/04 05:47:01;;;;;;;10.85;7.22;;;;;;;20.48;58.53;96704.34;5046366;28;20048;-66
2021/09/04 05:49:27;;;;;;;14.77;8.20;;;;;;;21.12;56.09;96704.84;5038899;28;20056;-67
2021/09/04 05:51:52;;;;;;;16.48;8.60;;;;;;;20.83;58.80;96707.53;5047426;28;20080;-65
2021/09/04 05:54:18;;;;;;;12.82;8.30;;;;;;;21.46;55.59;96708.38;5042111;28;20070;-66
2021/09/04 05:56:43;;;;;;;11.25;7.30;;;;;;;22.21;52.60;96717.41;5055554;28;20055;-66
2021/09/04 05:59:08;;;;;;;16.08;8.93;;;;;;;22.07;52.21;96715.03;5054431;28;20044;-66
2021/09/04 06:01:34;;;;;;;21.35;13.20;;;;;;;21.83;52.22;96722.91;5058595;28;20043;-66
2021/09/04 06:03:59;;;;;;;23.45;10.82;;;;;;;21.81;54.35;96728.16;5059727;28;20458;-65
2021/09/04 06:06:25;;;;;;;13.95;8.82;;;;;;;22.70;51.18;96719.16;5046853;28;20139;-65
2021/09/04 06:08:50;;;;;;;11.98;7.57;;;;;;;20.48;58.69;96723.81;5039666;28;20040;-65
2021/09/04 06:11:15;;;;;;;10.00;7.30;;;;;;;19.79;62.70;96724.47;5035060;28;20127;-64
2021/09/04 06:13:41;;;;;;;12.45;7.72;;;;;;;18.75;65.61;96725.47;5044981;28;20573;-64
2021/09/04 06:16:06;;;;;;;10.63;7.53;;;;;;;20.34;62.05;96724.91;5054643;28;20776;-65
2021/09/04 06:18:32;;;;;;;10.70;7.22;;;;;;;21.07;58.33;96726.84;5053811;28;20064;-65
2021/09/04 06:20:57;;;;;;;12.55;7.20;;;;;;;22.34;54.56;96725.84;5060202;28;20083;-65
2021/09/04 06:23:22;;;;;;;13.85;6.95;;;;;;;23.74;50.17;96726.88;5044714;28;20474;-65
2021/09/04 06:25:48;;;;;;;10.90;6.72;;;;;;;24.38;48.36;96728.56;5059098;28;20044;-65
2021/09/04 06:28:13;;;;;;;10.82;6.47;;;;;;;24.63;47.49;96732.47;5051836;28;20037;-65
2021/09/04 06:30:39;;;;;;;9.40;6.20;;;;;;;24.99;46.86;96731.81;5056469;28;20070;-66
2021/09/04 06:33:04;;;;;;;9.75;6.05;;;;;;;25.35;44.47;96731.16;5054148;28;20048;-64
2021/09/04 06:35:29;;;;;;;13.63;6.90;;;;;;;25.60;44.74;96725.72;5059052;28;20131;-67
2021/09/04 06:37:55;;;;;;;9.50;6.32;;;;;;;25.23;44.48;96720.84;5036065;28;20053;-66
2021/09/04 06:40:20;;;;;;;9.63;6.15;;;;;;;25.30;44.37;96722.56;5050354;28;20040;-65
2021/09/04 06:42:46;;;;;;;10.25;6.50;;;;;;;26.26;44.09;96719.63;5054934;28;20040;-65
2021/09/04 06:45:11;;;;;;;9.88;5.97;;;;;;;26.40;43.42;96718.16;5051692;28;20046;-65
2021/09/04 06:47:37;;;;;;;12.60;6.43;;;;;;;26.03;44.06;96724.66;5062715;28;20056;-66
2021/09/04 06:50:03;;;;;;;11.80;6.20;;;;;;;26.68;42.78;96713.28;5056455;28;20102;-64
2021/09/04 06:52:29;;;;;;;10.48;7.00;;;;;;;24.54;46.95;96717.19;5037409;28;20041;-66
2021/09/04 06:54:55;;;;;;;9.50;6.50;;;;;;;25.09;46.63;96727.81;5048079;28;20137;-65
2021/09/04 06:57:20;;;;;;;8.75;5.90;;;;;;;26.62;42.90;96709.56;5030680;28;20044;-65
2021/09/04 06:59:46;;;;;;;12.27;7.00;;;;;;;27.08;41.72;96717.75;5057203;28;20051;-64
2021/09/04 07:02:11;;;;;;;11.15;6.57;;;;;;;25.76;44.67;96712.16;5052298;28;20044;-65
2021/09/04 07:04:36;;;;;;;10.20;6.70;;;;;;;27.04;41.52;96714.34;5046699;28;20045;-66
2021/09/04 07:07:06;;;;;;;11.73;6.80;;;;;;;27.35;40.34;96718.88;5043678;28;20063;-64
2021/09/04 07:09:32;;;;;;;11.27;6.60;;;;;;;27.02;41.55;96728.09;5052884;28;20044;-65
2021/09/04 07:11:58;;;;;;;10.25;6.53;;;;;;;27.29;40.18;96732.81;5052133;28;20053;-64
2021/09/04 07:14:23;;;;;;;14.85;7.82;;;;;;;26.00;43.11;96727.59;5053397;28;20519;-66
2021/09/04 07:16:49;;;;;;;12.57;6.70;;;;;;;26.03;43.03;96732.28;5046796;28;20064;-65
2021/09/04 07:19:14;;;;;;;11.02;6.97;;;;;;;22.26;50.54;96733.63;5025888;28;20062;-67
2021/09/04 07:21:40;;;;;;;12.18;7.57;;;;;;;20.84;57.29;96741.75;5033881;28;20049;-67
2021/09/04 07:24:05;;;;;;;10.40;6.93;;;;;;;23.23;51.20;96736.22;5028386;28;20632;-65
2021/09/04 07:26:32;;;;;;;9.18;6.00;;;;;;;24.65;47.97;96735.59;5022281;28;20417;-67
2021/09/04 07:28:58;;;;;;;10.77;6.20;;;;;;;27.13;42.12;96736.00;5030882;28;20125;-66
2021/09/04 07:31:23;;;;;;;10.15;6.10;;;;;;;27.50;40.37;96730.19;5036956;28;20681;-67
2021/09/04 07:33:49;;;;;;;10.80;5.80;;;;;;;25.49;46.12;96745.81;5048082;28;20040;-67
2021/09/04 07:36:15;;;;;;;10.23;6.97;;;;;;;23.24;50.08;96748.94;5031524;28;20359;-66
2021/09/04 07:38:40;;;;;;;11.10;6.65;;;;;;;23.08;52.47;96744.31;5055250;28;20036;-66
2021/09/04 07:41:06;;;;;;;11.07;7.18;;;;;;;23.60;51.16;96749.75;5020129;28;20041;-66
2021/09/04 07:43:31;;;;;;;13.27;7.00;;;;;;;21.60;58.11;96744.22;5023616;28;20402;-65
2021/09/04 07:45:57;;;;;;;10.23;7.25;;;;;;;21.86;56.55;96744.31;5037650;28;20061;-66
2021/09/04 07:48:22;;;;;;;11.77;7.22;;;;;;;22.24;56.52;96747.22;5026592;28;20052;-66
2021/09/04 07:50:48;;;;;;;9.82;6.63;;;;;;;24.54;49.43;96748.00;5061922;28;20067;-65
2021/09/04 07:53:13;;;;;;;12.63;7.18;;;;;;;26.16;44.83;96746.16;5049232;28;20048;-65
2021/09/04 07:55:39;;;;;;;11.38;6.75;;;;;;;25.36;45.88;96743.94;5063058;28;20072;-65
2021/09/04 07:58:04;;;;;;;11.80;7.10;;;;;;;26.20;45.03;96743.94;5057059;28;20139;-63
2021/09/04 08:00:29;;;;;;;10.40;7.40;;;;;;;26.17;44.00;96744.91;5062728;28;20101;-66
2021/09/04 08:02:55;;;;;;;11.57;8.05;;;;;;;22.10;53.83;96747.63;5059621;28;20123;-66
2021/09/04 08:05:20;;;;;;;10.25;7.35;;;;;;;23.47;51.38;96753.38;5058228;28;20394;-65
2021/09/04 08:07:46;;;;;;;11.10;7.18;;;;;;;26.28;44.82;96754.38;5063187;28;20068;-66
2021/09/04 08:10:12;;;;;;;11.95;7.20;;;;;;;26.40;43.67;96744.25;5058908;28;20570;-66
2021/09/04 08:12:38;;;;;;;10.68;6.28;;;;;;;24.11;49.95;96752.38;5062159;28;20036;-64
2021/09/04 08:15:04;;;;;;;11.32;6.97;;;;;;;24.32;48.86;96744.41;5059326;28;20049;-64
2021/09/04 08:17:30;;;;;;;12.80;6.95;;;;;;;25.77;45.41;96749.44;5014751;28;20041;-67
2021/09/04 08:19:55;;;;;;;9.00;6.47;;;;;;;24.04;50.27;96753.41;5058539;28;20044;-65
2021/09/04 08:22:21;;;;;;;12.38;7.55;;;;;;;23.65;50.36;96754.78;5057586;28;20813;-66
2021/09/04 08:24:46;;;;;;;12.95;7.07;;;;;;;22.77;54.81;96744.06;5062546;28;20047;-66
2021/09/04 08:27:11;;;;;;;10.20;6.57;;;;;;;25.58;48.27;96745.81;5057739;28;20037;-66
2021/09/04 08:29:37;;;;;;;9.85;6.97;;;;;;;25.46;46.39;96747.53;5062806;28;20045;-66
2021/09/04 08:32:03;;;;;;;11.88;7.05;;;;;;;25.33;48.23;96750.44;5060665;28;20071;-66
2021/09/04 08:34:29;;;;;;;10.48;7.03;;;;;;;25.47;47.70;96754.69;5043414;28;20059;-67
2021/09/04 08:36:54;;;;;;;9.85;6.47;;;;;;;26.13;46.80;96747.88;5061719;28;20049;-66
2021/09/04 08:39:20;;;;;;;9.80;7.32;;;;;;;24.37;50.16;96757.81;5053369;28;20037;-65
2021/09/04 08:41:45;;;;;;;11.15;7.40;;;;;;;25.24;48.57;96752.44;5056158;28;20499;-66
2021/09/04 08:44:11;;;;;;;11.13;7.65;;;;;;;23.55;51.21;96758.72;5056928;28;20044;-66
2021/09/04 08:46:38;;;;;;;11.27;7.10;;;;;;;24.65;49.86;96749.59;5060486;28;20051;-66
2021/09/04 08:49:06;;;;;;;12.25;6.68;;;;;;;25.52;48.02;96748.47;5056579;28;20647;-63
2021/09/04 08:51:33;;;;;;;11.05;6.35;;;;;;;26.56;45.25;96751.53;5061027;28;20055;-65
2021/09/04 08:53:58;;;;;;;10.32;6.82;;;;;;;27.44;43.63;96749.75;5061899;28;20457;-66
2021/09/04 08:56:24;;;;;;;9.05;6.22;;;;;;;27.43;42.71;96754.59;5055256;28;20109;-66
2021/09/04 08:58:49;;;;;;;9.25;6.57;;;;;;;27.99;41.10;96754.97;5060905;28;20093;-66
2021/09/04 09:01:22;;;;;;;8.18;5.55;;;;;;;28.18;41.67;96752.00;5056633;28;20067;-65
2021/09/04 09:03:49;;;;;;;9.52;6.20;;;;;;;28.33;40.63;96746.41;5062158;28;20036;-66
2021/09/04 09:06:29;;;;;;;9.60;6.55;;;;;;;24.41;50.03;96758.47;5056443;28;20068;-65
2021/09/04 09:08:56;;;;;;;11.25;6.93;;;;;;;22.59;54.63;96750.19;5058991;28;20536;-63
2021/09/04 09:11:23;;;;;;;12.63;7.53;;;;;;;22.18;55.96;96748.22;5054585;28;20104;-66
2021/09/04 09:13:50;;;;;;;9.93;6.55;;;;;;;22.40;56.85;96740.81;5060981;28;20731;-66
2021/09/04 09:16:18;;;;;;;9.95;7.25;;;;;;;22.51;54.73;96740.50;5055631;28;20485;-66
2021/09/04 09:19:02;;;;;;;10.18;6.07;;;;;;;22.56;54.20;96744.72;5061930;28;20062;-66
2021/09/04 09:21:31;;;;;;;11.45;6.78;;;;;;;21.51;57.88;96742.06;5057105;28;20047;-66
2021/09/04 09:24:07;;;;;;;12.80;7.03;;;;;;;22.47;55.80;96740.59;5059955;28;20051;-65
2021/09/04 09:26:32;;;;;;;12.48;7.40;;;;;;;22.24;55.72;96738.84;5051866;28;20068;-65
2021/09/04 09:29:32;;;;;;;8.55;5.78;;;;;;;23.64;51.91;96740.03;5058482;28;20095;-66
2021/09/04 09:32:05;;;;;;;11.05;6.00;;;;;;;25.80;47.35;96736.47;5040956;28;20045;-65
2021/09/04 09:34:36;;;;;;;11.20;5.43;;;;;;;27.83;42.54;96730.09;5046533;28;20059;-66
2021/09/04 09:37:02;;;;;;;9.60;6.00;;;;;;;27.96;44.02;96729.84;5061992;28;20420;-66
2021/09/04 09:39:32;;;;;;;14.23;6.30;;;;;;;28.32;43.81;96725.88;5056355;28;20124;-66
2021/09/04 09:41:58;;;;;;;;;;;;;;;27.64;44.39;96724.63;5061592;28;20101;-66
2021/09/04 09:44:26;;;;;;;8.95;6.05;;;;;;;28.20;42.62;96733.38;5049389;28;20459;-65
2021/09/04 09:46:57;;;;;;;7.60;5.22;;;;;;;28.56;42.69;96725.81;5061469;28;20055;-66
2021/09/04 09:49:31;;;;;;;10.38;5.93;;;;;;;28.96;41.69;96727.22;5052435;28;20052;-67
2021/09/04 09:52:02;;;;;;;8.98;5.63;;;;;;;29.10;40.78;96725.63;5059150;28;20521;-67
2021/09/04 09:54:31;;;;;;;7.38;5.45;;;;;;;29.51;40.29;96720.03;5058759;28;20090;-66
2021/09/04 09:56:59;;;;;;;8.15;6.10;;;;;;;29.01;41.53;96722.13;5061676;28;20101;-66
2021/09/04 09:59:31;;;;;;;10.73;6.50;;;;;;;28.78;41.21;96716.94;5055177;28;20048;-65
2021/09/04 10:02:07;;;;;;;10.95;6.45;;;;;;;28.06;43.00;96716.47;5060264;28;20071;-66
2021/09/04 10:04:34;;;;;;;9.50;6.10;;;;;;;28.85;41.21;96715.78;5052647;28;20414;-66
2021/09/04 10:07:07;;;;;;;9.73;6.13;;;;;;;28.12;42.67;96712.47;5060729;28;20060;-65
2021/09/04 10:09:33;;;;;;;8.30;5.32;;;;;;;29.02;41.59;96710.38;5060249;28;20048;-67
2021/09/04 10:11:59;;;;;;;9.57;6.55;;;;;;;29.39;40.51;96709.88;5060111;28;20497;-65
2021/09/04 10:14:25;;;;;;;11.48;6.40;;;;;;;28.42;42.58;96709.69;5054594;28;20519;-65
2021/09/04 10:16:54;;;;;;;9.93;6.18;;;;;;;29.17;41.54;96699.84;5057931;28;20079;-66
2021/09/04 10:19:27;;;;;;;11.10;6.22;;;;;;;28.83;41.87;96704.22;5046680;28;20040;-66
2021/09/04 10:22:04;;;;;;;10.55;6.40;;;;;;;28.78;41.78;96711.31;5042693;28;20036;-66
2021/09/04 10:24:42;;;;;;;10.32;6.00;;;;;;;28.45;41.27;96711.53;5041011;28;20046;-65
2021/09/04 10:27:13;;;;;;;14.85;6.88;;;;;;;26.15;46.83;96703.28;5027481;28;20040;-67
2021/09/04 10:29:43;;;;;;;10.10;6.28;;;;;;;27.82;43.92;96706.81;5016398;28;20049;-65
2021/09/04 10:32:13;;;;;;;;;;;;;;;27.58;46.10;96694.81;5027594;28;20055;-66
2021/09/04 10:34:41;;;;;;;9.23;6.60;;;;;;;27.57;45.73;96696.84;5040167;28;20496;-65
2021/09/04 10:37:18;;;;;;;14.88;6.05;;;;;;;27.75;45.83;96697.94;5052192;28;20106;-65
2021/09/04 10:40:10;;;;;;;11.77;6.63;;;;;;;27.73;45.58;96695.63;5044041;28;20045;-66
2021/09/04 10:42:40;;;;;;;11.38;6.63;;;;;;;27.30;46.54;96691.41;5039209;28;20106;-66
2021/09/04 10:45:17;;;;;;;11.63;6.40;;;;;;;27.46;45.88;96697.41;5051004;28;20064;-66
2021/09/04 10:47:45;;;;;;;10.07;6.72;;;;;;;26.59;48.65;96697.19;5059999;28;20052;-66
2021/09/04 10:50:14;;;;;;;10.65;6.53;;;;;;;26.87;48.28;96685.88;5054416;28;20401;-67
2021/09/04 10:52:46;;;;;;;9.90;6.78;;;;;;;27.26;46.86;96695.19;5053159;28;20162;-66
2021/09/04 10:55:18;;;;;;;11.55;7.10;;;;;;;26.98;47.25;96696.59;5054967;28;20051;-66
2021/09/04 10:57:46;;;;;;;9.50;6.85;;;;;;;27.21;47.21;96689.44;5062675;28;20417;-65
2021/09/04 11:00:26;;;;;;;10.50;6.32;;;;;;;26.95;48.31;96695.50;5054921;28;20053;-66
2021/09/04 11:03:02;;;;;;;10.40;6.82;;;;;;;26.85;49.48;96685.59;5059588;28;20033;-66
2021/09/04 11:05:38;;;;;;;12.95;6.72;;;;;;;26.51;50.13;96682.72;5055028;28;20048;-66
2021/09/04 11:08:33;;;;;;;11.27;7.38;;;;;;;26.15;51.58;96682.84;5055846;28;20520;-63
2021/09/04 11:11:12;;;;;;;15.30;7.38;;;;;;;25.37;52.50;96681.03;5054333;28;20379;-66
2021/09/04 11:13:48;;;;;;;10.05;6.90;;;;;;;24.86;54.73;96681.50;5039594;28;20037;-67
2021/09/04 11:16:51;;;;;;;11.05;7.07;;;;;;;25.11;53.66;96679.72;5044244;28;20073;-65
2021/09/04 11:19:21;;;;;;;17.25;8.02;;;;;;;24.85;55.12;96677.16;5048145;28;20041;-66
2021/09/04 11:22:09;;;;;;;13.00;9.07;;;;;;;24.57;56.52;96677.06;5057076;28;20044;-66
2021/09/04 11:24:40;;;;;;;11.90;7.60;;;;;;;24.70;55.99;96668.53;5050096;28;20156;-65